sensor_id;sensor_type;location;lat;lon;timestamp;P1;durP1;ratioP1;P2;durP2;ratioP2
2023;SDS011;1016;48.770;9.154;2023-03-20T00:01:19;17.60;;;4.00;;
2023;SDS011;1016;48.770;9.154;2023-03-20T00:03:46;17.50;;;3.90;;
2023;SDS011;1016;48.770;9.154;2023-03-20T00:06:16;17.47;;;3.93;;
2023;SDS011;1016;48.770;9.154;2023-03-20T00:08:59;17.27;;;3.80;;
2023;SDS011;1016;48.770;9.154;2023-03-20T00:16:38;18.30;;;3.87;;
2023;SDS011;1016;48.770;9.154;2023-03-20T00:19:08;18.30;;;4.90;;
2023;SDS011;1016;48.770;9.154;2023-03-20T00:21:41;19.80;;;4.27;;
2023;SDS011;1016;48.770;9.154;2023-03-20T00:24:08;17.80;;;4.03;;
2023;SDS011;1016;48.770;9.154;2023-03-20T00:26:34;17.63;;;3.90;;
2023;SDS011;1016;48.770;9.154;2023-03-20T00:29:03;18.17;;;4.30;;
2023;SDS011;1016;48.770;9.154;2023-03-20T00:31:34;18.57;;;4.53;;
2023;SDS011;1016;48.770;9.154;2023-03-20T00:34:06;19.07;;;4.77;;
2023;SDS011;1016;48.770;9.154;2023-03-20T00:36:39;16.87;;;3.13;;
2023;SDS011;1016;48.770;9.154;2023-03-20T00:39:05;16.60;;;3.20;;
2023;SDS011;1016;48.770;9.154;2023-03-20T00:46:37;17.57;;;3.47;;
2023;SDS011;1016;48.770;9.154;2023-03-20T00:49:03;17.53;;;3.20;;
2023;SDS011;1016;48.770;9.154;2023-03-20T00:51:29;16.70;;;2.80;;
2023;SDS011;1016;48.770;9.154;2023-03-20T00:53:55;16.50;;;2.97;;
2023;SDS011;1016;48.770;9.154;2023-03-20T00:56:34;16.70;;;3.33;;
2023;SDS011;1016;48.770;9.154;2023-03-20T00:59:03;15.87;;;2.37;;
2023;SDS011;1016;48.770;9.154;2023-03-20T01:01:29;16.77;;;2.70;;
2023;SDS011;1016;48.770;9.154;2023-03-20T01:03:56;16.30;;;2.60;;
2023;SDS011;1016;48.770;9.154;2023-03-20T01:06:22;16.83;;;2.70;;
2023;SDS011;1016;48.770;9.154;2023-03-20T01:08:48;16.33;;;2.70;;
2023;SDS011;1016;48.770;9.154;2023-03-20T01:11:13;16.57;;;2.80;;
2023;SDS011;1016;48.770;9.154;2023-03-20T01:13:44;17.70;;;3.10;;
2023;SDS011;1016;48.770;9.154;2023-03-20T01:16:14;16.70;;;2.80;;
2023;SDS011;1016;48.770;9.154;2023-03-20T01:18:46;16.77;;;3.13;;
2023;SDS011;1016;48.770;9.154;2023-03-20T01:21:12;16.47;;;2.80;;
2023;SDS011;1016;48.770;9.154;2023-03-20T01:23:38;15.90;;;2.80;;
2023;SDS011;1016;48.770;9.154;2023-03-20T01:26:05;16.47;;;3.10;;
2023;SDS011;1016;48.770;9.154;2023-03-20T01:28:49;17.80;;;2.93;;
2023;SDS011;1016;48.770;9.154;2023-03-20T01:31:16;18.20;;;2.90;;
2023;SDS011;1016;48.770;9.154;2023-03-20T01:33:42;16.50;;;2.73;;
2023;SDS011;1016;48.770;9.154;2023-03-20T01:36:11;16.37;;;2.83;;
2023;SDS011;1016;48.770;9.154;2023-03-20T01:38:39;16.17;;;2.50;;
2023;SDS011;1016;48.770;9.154;2023-03-20T01:41:12;17.13;;;3.17;;
2023;SDS011;1016;48.770;9.154;2023-03-20T01:43:40;16.90;;;3.10;;
2023;SDS011;1016;48.770;9.154;2023-03-20T01:51:17;17.30;;;2.90;;
2023;SDS011;1016;48.770;9.154;2023-03-20T01:53:49;16.10;;;2.57;;
2023;SDS011;1016;48.770;9.154;2023-03-20T01:56:37;16.67;;;2.60;;
2023;SDS011;1016;48.770;9.154;2023-03-20T01:59:16;17.47;;;2.40;;
2023;SDS011;1016;48.770;9.154;2023-03-20T02:01:48;16.03;;;2.30;;
2023;SDS011;1016;48.770;9.154;2023-03-20T02:04:14;16.13;;;2.47;;
2023;SDS011;1016;48.770;9.154;2023-03-20T02:06:40;16.13;;;2.60;;
2023;SDS011;1016;48.770;9.154;2023-03-20T02:09:08;16.80;;;2.57;;
2023;SDS011;1016;48.770;9.154;2023-03-20T02:11:35;16.20;;;2.27;;
2023;SDS011;1016;48.770;9.154;2023-03-20T02:14:01;16.20;;;2.20;;
2023;SDS011;1016;48.770;9.154;2023-03-20T02:16:29;16.60;;;2.40;;
2023;SDS011;1016;48.770;9.154;2023-03-20T02:18:55;15.70;;;2.27;;
2023;SDS011;1016;48.770;9.154;2023-03-20T02:32:11;15.17;;;1.17;;
2023;SDS011;1016;48.770;9.154;2023-03-20T02:34:45;15.27;;;1.10;;
2023;SDS011;1016;48.770;9.154;2023-03-20T02:48:58;15.13;;;1.07;;
2023;SDS011;1016;48.770;9.154;2023-03-20T02:54:30;15.23;;;1.00;;
2023;SDS011;1016;48.770;9.154;2023-03-20T03:00:13;15.90;;;1.00;;
2023;SDS011;1016;48.770;9.154;2023-03-20T03:02:42;15.23;;;1.07;;
2023;SDS011;1016;48.770;9.154;2023-03-20T03:05:15;16.83;;;1.20;;
2023;SDS011;1016;48.770;9.154;2023-03-20T03:07:46;15.17;;;1.00;;
2023;SDS011;1016;48.770;9.154;2023-03-20T03:10:26;15.50;;;1.00;;
2023;SDS011;1016;48.770;9.154;2023-03-20T03:13:02;15.47;;;0.80;;
2023;SDS011;1016;48.770;9.154;2023-03-20T03:15:39;15.40;;;1.00;;
2023;SDS011;1016;48.770;9.154;2023-03-20T03:18:10;15.30;;;1.10;;
2023;SDS011;1016;48.770;9.154;2023-03-20T03:20:43;15.27;;;0.90;;
2023;SDS011;1016;48.770;9.154;2023-03-20T03:23:14;15.60;;;1.00;;
2023;SDS011;1016;48.770;9.154;2023-03-20T03:25:57;15.33;;;1.00;;
2023;SDS011;1016;48.770;9.154;2023-03-20T03:28:39;15.10;;;1.00;;
2023;SDS011;1016;48.770;9.154;2023-03-20T03:31:10;15.03;;;1.00;;
2023;SDS011;1016;48.770;9.154;2023-03-20T03:33:38;16.73;;;1.17;;
2023;SDS011;1016;48.770;9.154;2023-03-20T03:36:21;15.47;;;1.10;;
2023;SDS011;1016;48.770;9.154;2023-03-20T03:42:04;15.60;;;0.90;;
2023;SDS011;1016;48.770;9.154;2023-03-20T03:45:14;15.47;;;1.00;;
2023;SDS011;1016;48.770;9.154;2023-03-20T03:50:24;15.03;;;0.90;;
2023;SDS011;1016;48.770;9.154;2023-03-20T03:52:54;15.13;;;0.90;;
2023;SDS011;1016;48.770;9.154;2023-03-20T03:55:25;14.87;;;1.00;;
2023;SDS011;1016;48.770;9.154;2023-03-20T03:58:00;14.83;;;0.87;;
2023;SDS011;1016;48.770;9.154;2023-03-20T04:00:31;15.60;;;1.10;;
2023;SDS011;1016;48.770;9.154;2023-03-20T04:02:58;15.33;;;1.00;;
2023;SDS011;1016;48.770;9.154;2023-03-20T04:05:26;16.30;;;1.00;;
2023;SDS011;1016;48.770;9.154;2023-03-20T04:07:56;15.50;;;1.00;;
2023;SDS011;1016;48.770;9.154;2023-03-20T04:10:23;15.07;;;0.90;;
2023;SDS011;1016;48.770;9.154;2023-03-20T04:12:49;15.30;;;1.00;;
2023;SDS011;1016;48.770;9.154;2023-03-20T04:15:14;16.53;;;1.10;;
2023;SDS011;1016;48.770;9.154;2023-03-20T04:17:40;15.80;;;1.10;;
2023;SDS011;1016;48.770;9.154;2023-03-20T04:20:10;16.80;;;0.97;;
2023;SDS011;1016;48.770;9.154;2023-03-20T04:22:36;14.97;;;0.80;;
2023;SDS011;1016;48.770;9.154;2023-03-20T04:25:05;14.87;;;0.90;;
2023;SDS011;1016;48.770;9.154;2023-03-20T04:27:33;15.60;;;1.03;;
2023;SDS011;1016;48.770;9.154;2023-03-20T04:29:58;14.93;;;0.90;;
2023;SDS011;1016;48.770;9.154;2023-03-20T04:32:24;15.03;;;1.00;;
2023;SDS011;1016;48.770;9.154;2023-03-20T04:34:49;15.30;;;1.13;;
2023;SDS011;1016;48.770;9.154;2023-03-20T04:37:16;16.63;;;1.10;;
2023;SDS011;1016;48.770;9.154;2023-03-20T04:39:42;15.57;;;1.00;;
2023;SDS011;1016;48.770;9.154;2023-03-20T04:42:07;15.67;;;1.10;;
2023;SDS011;1016;48.770;9.154;2023-03-20T04:44:33;15.80;;;1.20;;
2023;SDS011;1016;48.770;9.154;2023-03-20T04:46:59;15.20;;;1.27;;
2023;SDS011;1016;48.770;9.154;2023-03-20T04:49:25;15.57;;;1.10;;
2023;SDS011;1016;48.770;9.154;2023-03-20T04:51:51;15.03;;;1.00;;
2023;SDS011;1016;48.770;9.154;2023-03-20T04:54:16;15.50;;;1.20;;
2023;SDS011;1016;48.770;9.154;2023-03-20T04:56:42;15.27;;;1.20;;
2023;SDS011;1016;48.770;9.154;2023-03-20T04:59:08;15.80;;;1.00;;
2023;SDS011;1016;48.770;9.154;2023-03-20T05:01:33;15.53;;;1.20;;
2023;SDS011;1016;48.770;9.154;2023-03-20T05:03:59;15.13;;;1.03;;
2023;SDS011;1016;48.770;9.154;2023-03-20T05:06:28;15.37;;;1.10;;
2023;SDS011;1016;48.770;9.154;2023-03-20T05:08:55;15.97;;;1.00;;
2023;SDS011;1016;48.770;9.154;2023-03-20T05:11:23;15.00;;;0.80;;
2023;SDS011;1016;48.770;9.154;2023-03-20T05:13:49;15.40;;;0.93;;
2023;SDS011;1016;48.770;9.154;2023-03-20T05:16:15;15.13;;;1.10;;
2023;SDS011;1016;48.770;9.154;2023-03-20T05:18:40;14.97;;;0.97;;
2023;SDS011;1016;48.770;9.154;2023-03-20T05:21:06;15.37;;;0.90;;
2023;SDS011;1016;48.770;9.154;2023-03-20T05:23:32;15.17;;;1.10;;
2023;SDS011;1016;48.770;9.154;2023-03-20T05:25:58;15.70;;;1.47;;
2023;SDS011;1016;48.770;9.154;2023-03-20T05:28:23;15.30;;;1.20;;
2023;SDS011;1016;48.770;9.154;2023-03-20T05:30:49;15.20;;;1.10;;
2023;SDS011;1016;48.770;9.154;2023-03-20T05:33:14;17.13;;;1.30;;
2023;SDS011;1016;48.770;9.154;2023-03-20T05:35:40;15.07;;;1.10;;
2023;SDS011;1016;48.770;9.154;2023-03-20T05:38:06;15.40;;;1.20;;
2023;SDS011;1016;48.770;9.154;2023-03-20T05:40:31;15.20;;;1.10;;
2023;SDS011;1016;48.770;9.154;2023-03-20T05:42:57;15.40;;;1.20;;
2023;SDS011;1016;48.770;9.154;2023-03-20T05:45:22;16.03;;;1.30;;
2023;SDS011;1016;48.770;9.154;2023-03-20T05:47:48;15.40;;;1.00;;
2023;SDS011;1016;48.770;9.154;2023-03-20T05:50:13;15.50;;;1.63;;
2023;SDS011;1016;48.770;9.154;2023-03-20T05:52:39;15.50;;;1.43;;
2023;SDS011;1016;48.770;9.154;2023-03-20T05:55:04;16.00;;;1.80;;
2023;SDS011;1016;48.770;9.154;2023-03-20T05:57:30;15.77;;;1.33;;
2023;SDS011;1016;48.770;9.154;2023-03-20T05:59:56;15.73;;;1.37;;
2023;SDS011;1016;48.770;9.154;2023-03-20T06:02:21;16.70;;;1.20;;
2023;SDS011;1016;48.770;9.154;2023-03-20T06:04:47;15.70;;;1.47;;
2023;SDS011;1016;48.770;9.154;2023-03-20T06:07:12;15.90;;;1.20;;
2023;SDS011;1016;48.770;9.154;2023-03-20T06:09:38;15.40;;;1.17;;
2023;SDS011;1016;48.770;9.154;2023-03-20T06:12:03;15.43;;;1.10;;
2023;SDS011;1016;48.770;9.154;2023-03-20T06:14:29;15.70;;;1.43;;
2023;SDS011;1016;48.770;9.154;2023-03-20T06:16:54;16.07;;;1.47;;
2023;SDS011;1016;48.770;9.154;2023-03-20T06:19:21;15.40;;;1.13;;
2023;SDS011;1016;48.770;9.154;2023-03-20T06:21:47;15.40;;;1.17;;
2023;SDS011;1016;48.770;9.154;2023-03-20T06:24:14;15.27;;;1.10;;
2023;SDS011;1016;48.770;9.154;2023-03-20T06:26:40;15.37;;;1.20;;
2023;SDS011;1016;48.770;9.154;2023-03-20T06:29:06;15.57;;;1.37;;
2023;SDS011;1016;48.770;9.154;2023-03-20T06:31:31;15.50;;;1.17;;
2023;SDS011;1016;48.770;9.154;2023-03-20T06:33:57;15.43;;;1.10;;
2023;SDS011;1016;48.770;9.154;2023-03-20T06:36:22;15.20;;;1.10;;
2023;SDS011;1016;48.770;9.154;2023-03-20T06:38:48;16.33;;;1.20;;
2023;SDS011;1016;48.770;9.154;2023-03-20T06:41:13;15.73;;;1.50;;
2023;SDS011;1016;48.770;9.154;2023-03-20T06:43:39;17.03;;;1.37;;
2023;SDS011;1016;48.770;9.154;2023-03-20T06:46:06;16.00;;;1.40;;
2023;SDS011;1016;48.770;9.154;2023-03-20T06:48:32;15.40;;;1.30;;
2023;SDS011;1016;48.770;9.154;2023-03-20T06:50:58;15.70;;;1.50;;
2023;SDS011;1016;48.770;9.154;2023-03-20T06:53:23;16.63;;;1.60;;
2023;SDS011;1016;48.770;9.154;2023-03-20T06:55:49;16.77;;;1.50;;
2023;SDS011;1016;48.770;9.154;2023-03-20T06:58:15;15.43;;;1.40;;
2023;SDS011;1016;48.770;9.154;2023-03-20T07:00:41;15.90;;;1.70;;
2023;SDS011;1016;48.770;9.154;2023-03-20T07:03:07;17.00;;;1.77;;
2023;SDS011;1016;48.770;9.154;2023-03-20T07:05:34;18.00;;;1.60;;
2023;SDS011;1016;48.770;9.154;2023-03-20T07:07:59;20.13;;;2.10;;
2023;SDS011;1016;48.770;9.154;2023-03-20T07:10:25;15.77;;;1.60;;
2023;SDS011;1016;48.770;9.154;2023-03-20T07:12:51;17.03;;;1.70;;
2023;SDS011;1016;48.770;9.154;2023-03-20T07:15:17;15.67;;;1.60;;
2023;SDS011;1016;48.770;9.154;2023-03-20T07:17:43;16.60;;;1.90;;
2023;SDS011;1016;48.770;9.154;2023-03-20T07:20:08;15.90;;;1.60;;
2023;SDS011;1016;48.770;9.154;2023-03-20T07:22:35;16.50;;;1.77;;
2023;SDS011;1016;48.770;9.154;2023-03-20T07:25:00;15.80;;;1.80;;
2023;SDS011;1016;48.770;9.154;2023-03-20T07:27:26;16.17;;;1.80;;
2023;SDS011;1016;48.770;9.154;2023-03-20T07:29:52;16.63;;;2.07;;
2023;SDS011;1016;48.770;9.154;2023-03-20T07:32:17;16.50;;;1.90;;
2023;SDS011;1016;48.770;9.154;2023-03-20T07:34:43;15.77;;;1.53;;
2023;SDS011;1016;48.770;9.154;2023-03-20T07:37:09;15.93;;;1.57;;
2023;SDS011;1016;48.770;9.154;2023-03-20T07:39:34;16.40;;;2.00;;
2023;SDS011;1016;48.770;9.154;2023-03-20T07:42:00;16.40;;;2.00;;
2023;SDS011;1016;48.770;9.154;2023-03-20T07:44:26;18.63;;;1.90;;
2023;SDS011;1016;48.770;9.154;2023-03-20T07:46:51;15.43;;;1.50;;
2023;SDS011;1016;48.770;9.154;2023-03-20T07:49:17;17.30;;;1.70;;
2023;SDS011;1016;48.770;9.154;2023-03-20T07:51:43;16.33;;;1.80;;
2023;SDS011;1016;48.770;9.154;2023-03-20T07:54:10;16.13;;;2.17;;
2023;SDS011;1016;48.770;9.154;2023-03-20T07:56:35;16.07;;;2.00;;
2023;SDS011;1016;48.770;9.154;2023-03-20T07:59:01;16.60;;;2.00;;
2023;SDS011;1016;48.770;9.154;2023-03-20T08:01:27;16.53;;;2.03;;
2023;SDS011;1016;48.770;9.154;2023-03-20T08:03:52;16.30;;;2.00;;
2023;SDS011;1016;48.770;9.154;2023-03-20T08:06:18;17.47;;;2.67;;
2023;SDS011;1016;48.770;9.154;2023-03-20T08:08:44;16.73;;;2.07;;
2023;SDS011;1016;48.770;9.154;2023-03-20T08:11:10;15.90;;;1.97;;
2023;SDS011;1016;48.770;9.154;2023-03-20T08:13:37;17.60;;;2.00;;
2023;SDS011;1016;48.770;9.154;2023-03-20T08:16:02;15.77;;;1.63;;
2023;SDS011;1016;48.770;9.154;2023-03-20T08:18:28;16.10;;;1.67;;
2023;SDS011;1016;48.770;9.154;2023-03-20T08:20:54;16.17;;;1.63;;
2023;SDS011;1016;48.770;9.154;2023-03-20T08:23:19;19.20;;;4.10;;
2023;SDS011;1016;48.770;9.154;2023-03-20T08:25:46;16.70;;;1.73;;
2023;SDS011;1016;48.770;9.154;2023-03-20T08:28:14;16.27;;;1.77;;
2023;SDS011;1016;48.770;9.154;2023-03-20T08:30:40;16.60;;;1.60;;
2023;SDS011;1016;48.770;9.154;2023-03-20T08:33:05;18.13;;;1.77;;
2023;SDS011;1016;48.770;9.154;2023-03-20T08:35:31;15.93;;;1.43;;
2023;SDS011;1016;48.770;9.154;2023-03-20T08:37:56;15.80;;;1.60;;
2023;SDS011;1016;48.770;9.154;2023-03-20T08:40:22;18.70;;;1.77;;
2023;SDS011;1016;48.770;9.154;2023-03-20T08:42:48;17.03;;;1.67;;
2023;SDS011;1016;48.770;9.154;2023-03-20T08:45:13;16.20;;;1.90;;
2023;SDS011;1016;48.770;9.154;2023-03-20T08:47:39;16.20;;;1.90;;
2023;SDS011;1016;48.770;9.154;2023-03-20T08:50:05;16.30;;;1.67;;
2023;SDS011;1016;48.770;9.154;2023-03-20T08:52:31;16.53;;;1.60;;
2023;SDS011;1016;48.770;9.154;2023-03-20T08:54:57;15.90;;;1.50;;
2023;SDS011;1016;48.770;9.154;2023-03-20T08:57:22;15.97;;;1.70;;
2023;SDS011;1016;48.770;9.154;2023-03-20T08:59:48;16.20;;;1.73;;
2023;SDS011;1016;48.770;9.154;2023-03-20T09:02:13;16.90;;;1.90;;
2023;SDS011;1016;48.770;9.154;2023-03-20T09:04:39;16.07;;;1.77;;
2023;SDS011;1016;48.770;9.154;2023-03-20T09:07:05;17.77;;;1.70;;
2023;SDS011;1016;48.770;9.154;2023-03-20T09:09:31;18.87;;;1.80;;
2023;SDS011;1016;48.770;9.154;2023-03-20T09:11:57;16.27;;;1.80;;
2023;SDS011;1016;48.770;9.154;2023-03-20T09:14:24;16.00;;;1.67;;
2023;SDS011;1016;48.770;9.154;2023-03-20T09:16:54;16.90;;;1.50;;
2023;SDS011;1016;48.770;9.154;2023-03-20T09:19:19;16.77;;;1.80;;
2023;SDS011;1016;48.770;9.154;2023-03-20T09:21:45;17.17;;;1.63;;
2023;SDS011;1016;48.770;9.154;2023-03-20T09:24:11;17.40;;;1.80;;
2023;SDS011;1016;48.770;9.154;2023-03-20T09:26:37;16.47;;;1.80;;
2023;SDS011;1016;48.770;9.154;2023-03-20T09:29:03;16.90;;;2.53;;
2023;SDS011;1016;48.770;9.154;2023-03-20T09:31:29;16.83;;;2.20;;
2023;SDS011;1016;48.770;9.154;2023-03-20T09:33:55;16.23;;;2.00;;
2023;SDS011;1016;48.770;9.154;2023-03-20T09:36:20;15.83;;;1.60;;
2023;SDS011;1016;48.770;9.154;2023-03-20T09:38:46;16.73;;;1.67;;
2023;SDS011;1016;48.770;9.154;2023-03-20T09:41:22;16.63;;;1.70;;
2023;SDS011;1016;48.770;9.154;2023-03-20T09:46:53;18.27;;;2.30;;
2023;SDS011;1016;48.770;9.154;2023-03-20T09:49:37;16.47;;;1.83;;
2023;SDS011;1016;48.770;9.154;2023-03-20T09:52:16;16.30;;;1.90;;
2023;SDS011;1016;48.770;9.154;2023-03-20T09:54:47;16.27;;;1.80;;
2023;SDS011;1016;48.770;9.154;2023-03-20T09:57:39;16.33;;;1.83;;
2023;SDS011;1016;48.770;9.154;2023-03-20T10:00:11;16.87;;;1.80;;
2023;SDS011;1016;48.770;9.154;2023-03-20T10:05:28;16.87;;;2.20;;
2023;SDS011;1016;48.770;9.154;2023-03-20T10:07:54;16.67;;;2.30;;
2023;SDS011;1016;48.770;9.154;2023-03-20T10:10:25;16.67;;;2.07;;
2023;SDS011;1016;48.770;9.154;2023-03-20T10:16:18;17.33;;;2.30;;
2023;SDS011;1016;48.770;9.154;2023-03-20T10:18:50;17.67;;;2.20;;
2023;SDS011;1016;48.770;9.154;2023-03-20T10:21:31;18.07;;;2.00;;
2023;SDS011;1016;48.770;9.154;2023-03-20T10:26:57;16.87;;;2.10;;
2023;SDS011;1016;48.770;9.154;2023-03-20T10:32:20;17.97;;;1.90;;
2023;SDS011;1016;48.770;9.154;2023-03-20T10:37:53;20.27;;;1.63;;
2023;SDS011;1016;48.770;9.154;2023-03-20T10:40:33;19.10;;;2.00;;
2023;SDS011;1016;48.770;9.154;2023-03-20T10:43:03;17.27;;;1.60;;
2023;SDS011;1016;48.770;9.154;2023-03-20T10:45:37;16.30;;;1.87;;
2023;SDS011;1016;48.770;9.154;2023-03-20T10:48:12;17.60;;;2.30;;
2023;SDS011;1016;48.770;9.154;2023-03-20T10:50:55;16.77;;;1.80;;
2023;SDS011;1016;48.770;9.154;2023-03-20T10:53:25;17.13;;;1.87;;
2023;SDS011;1016;48.770;9.154;2023-03-20T10:56:01;16.83;;;2.13;;
2023;SDS011;1016;48.770;9.154;2023-03-20T10:58:30;16.47;;;2.10;;
2023;SDS011;1016;48.770;9.154;2023-03-20T11:01:01;16.93;;;2.07;;
2023;SDS011;1016;48.770;9.154;2023-03-20T11:03:28;16.50;;;1.63;;
2023;SDS011;1016;48.770;9.154;2023-03-20T11:05:56;17.97;;;2.00;;
2023;SDS011;1016;48.770;9.154;2023-03-20T11:08:29;17.80;;;2.07;;
2023;SDS011;1016;48.770;9.154;2023-03-20T11:11:00;16.63;;;2.30;;
2023;SDS011;1016;48.770;9.154;2023-03-20T11:15:55;20.90;;;3.00;;
2023;SDS011;1016;48.770;9.154;2023-03-20T11:18:31;17.83;;;2.93;;
2023;SDS011;1016;48.770;9.154;2023-03-20T11:20:58;17.40;;;2.83;;
2023;SDS011;1016;48.770;9.154;2023-03-20T11:23:26;19.20;;;3.20;;
2023;SDS011;1016;48.770;9.154;2023-03-20T11:28:40;18.57;;;4.10;;
2023;SDS011;1016;48.770;9.154;2023-03-20T11:33:38;19.70;;;4.40;;
2023;SDS011;1016;48.770;9.154;2023-03-20T11:36:24;20.50;;;4.77;;
2023;SDS011;1016;48.770;9.154;2023-03-20T11:38:51;18.40;;;4.17;;
2023;SDS011;1016;48.770;9.154;2023-03-20T11:41:23;19.53;;;5.23;;
2023;SDS011;1016;48.770;9.154;2023-03-20T11:43:50;19.83;;;4.80;;
2023;SDS011;1016;48.770;9.154;2023-03-20T11:46:17;19.20;;;4.10;;
2023;SDS011;1016;48.770;9.154;2023-03-20T11:48:46;19.77;;;4.77;;
2023;SDS011;1016;48.770;9.154;2023-03-20T11:51:15;20.67;;;4.90;;
2023;SDS011;1016;48.770;9.154;2023-03-20T11:56:24;20.57;;;5.40;;
2023;SDS011;1016;48.770;9.154;2023-03-20T12:01:36;19.40;;;4.60;;
2023;SDS011;1016;48.770;9.154;2023-03-20T12:04:26;20.27;;;4.80;;
2023;SDS011;1016;48.770;9.154;2023-03-20T12:07:10;19.60;;;5.17;;
2023;SDS011;1016;48.770;9.154;2023-03-20T12:09:53;21.23;;;5.17;;
2023;SDS011;1016;48.770;9.154;2023-03-20T12:14:57;19.20;;;4.33;;
2023;SDS011;1016;48.770;9.154;2023-03-20T12:31:18;23.87;;;4.70;;
2023;SDS011;1016;48.770;9.154;2023-03-20T12:36:25;20.40;;;4.37;;
2023;SDS011;1016;48.770;9.154;2023-03-20T12:38:55;21.63;;;4.53;;
2023;SDS011;1016;48.770;9.154;2023-03-20T12:41:23;19.60;;;4.40;;
2023;SDS011;1016;48.770;9.154;2023-03-20T12:44:02;19.87;;;4.63;;
2023;SDS011;1016;48.770;9.154;2023-03-20T12:49:09;18.93;;;4.10;;
2023;SDS011;1016;48.770;9.154;2023-03-20T12:54:27;20.40;;;4.50;;
2023;SDS011;1016;48.770;9.154;2023-03-20T12:57:18;20.03;;;4.40;;
2023;SDS011;1016;48.770;9.154;2023-03-20T13:00:04;18.90;;;4.30;;
2023;SDS011;1016;48.770;9.154;2023-03-20T13:02:51;19.53;;;3.90;;
2023;SDS011;1016;48.770;9.154;2023-03-20T13:11:09;19.37;;;4.10;;
2023;SDS011;1016;48.770;9.154;2023-03-20T13:16:25;19.73;;;4.50;;
2023;SDS011;1016;48.770;9.154;2023-03-20T13:24:39;20.80;;;4.40;;
2023;SDS011;1016;48.770;9.154;2023-03-20T13:38:18;39.30;;;6.07;;
2023;SDS011;1016;48.770;9.154;2023-03-20T13:40:54;19.70;;;4.73;;
2023;SDS011;1016;48.770;9.154;2023-03-20T13:43:33;20.83;;;4.60;;
2023;SDS011;1016;48.770;9.154;2023-03-20T13:46:06;18.63;;;3.83;;
2023;SDS011;1016;48.770;9.154;2023-03-20T13:48:49;18.90;;;4.10;;
2023;SDS011;1016;48.770;9.154;2023-03-20T13:56:52;19.90;;;4.27;;
2023;SDS011;1016;48.770;9.154;2023-03-20T13:59:42;20.70;;;3.40;;
2023;SDS011;1016;48.770;9.154;2023-03-20T14:02:22;19.47;;;3.47;;
2023;SDS011;1016;48.770;9.154;2023-03-20T14:07:36;18.50;;;3.60;;
2023;SDS011;1016;48.770;9.154;2023-03-20T14:12:58;21.40;;;3.80;;
2023;SDS011;1016;48.770;9.154;2023-03-20T14:15:35;19.20;;;4.40;;
2023;SDS011;1016;48.770;9.154;2023-03-20T14:18:06;19.07;;;3.90;;
2023;SDS011;1016;48.770;9.154;2023-03-20T14:20:38;18.43;;;3.27;;
2023;SDS011;1016;48.770;9.154;2023-03-20T14:23:06;19.93;;;3.13;;
2023;SDS011;1016;48.770;9.154;2023-03-20T14:25:43;19.90;;;3.10;;
2023;SDS011;1016;48.770;9.154;2023-03-20T14:30:43;18.40;;;3.17;;
2023;SDS011;1016;48.770;9.154;2023-03-20T14:52:21;18.40;;;3.10;;
2023;SDS011;1016;48.770;9.154;2023-03-20T14:55:13;18.10;;;2.80;;
2023;SDS011;1016;48.770;9.154;2023-03-20T14:57:46;20.60;;;4.17;;
2023;SDS011;1016;48.770;9.154;2023-03-20T15:00:54;19.77;;;4.63;;
2023;SDS011;1016;48.770;9.154;2023-03-20T15:03:10;20.23;;;3.67;;
2023;SDS011;1016;48.770;9.154;2023-03-20T15:05:39;18.30;;;3.27;;
2023;SDS011;1016;48.770;9.154;2023-03-20T15:08:07;18.97;;;3.10;;
2023;SDS011;1016;48.770;9.154;2023-03-20T15:10:43;18.60;;;3.10;;
2023;SDS011;1016;48.770;9.154;2023-03-20T15:13:12;18.90;;;3.60;;
2023;SDS011;1016;48.770;9.154;2023-03-20T15:15:49;18.40;;;3.03;;
2023;SDS011;1016;48.770;9.154;2023-03-20T15:18:19;19.90;;;3.00;;
2023;SDS011;1016;48.770;9.154;2023-03-20T15:20:45;20.10;;;3.37;;
2023;SDS011;1016;48.770;9.154;2023-03-20T15:23:12;17.90;;;2.70;;
2023;SDS011;1016;48.770;9.154;2023-03-20T15:25:41;19.33;;;3.17;;
2023;SDS011;1016;48.770;9.154;2023-03-20T15:28:13;18.30;;;3.00;;
2023;SDS011;1016;48.770;9.154;2023-03-20T15:30:41;19.17;;;3.10;;
2023;SDS011;1016;48.770;9.154;2023-03-20T15:33:14;18.60;;;3.20;;
2023;SDS011;1016;48.770;9.154;2023-03-20T15:35:49;18.47;;;3.10;;
2023;SDS011;1016;48.770;9.154;2023-03-20T15:38:15;18.40;;;2.60;;
2023;SDS011;1016;48.770;9.154;2023-03-20T15:40:42;18.10;;;3.03;;
2023;SDS011;1016;48.770;9.154;2023-03-20T15:43:16;19.10;;;2.80;;
2023;SDS011;1016;48.770;9.154;2023-03-20T15:45:46;17.07;;;2.20;;
2023;SDS011;1016;48.770;9.154;2023-03-20T15:48:13;17.30;;;1.67;;
2023;SDS011;1016;48.770;9.154;2023-03-20T15:50:44;16.97;;;1.50;;
2023;SDS011;1016;48.770;9.154;2023-03-20T15:53:18;19.83;;;1.60;;
2023;SDS011;1016;48.770;9.154;2023-03-20T15:55:51;18.13;;;1.57;;
2023;SDS011;1016;48.770;9.154;2023-03-20T15:58:21;17.20;;;1.40;;
2023;SDS011;1016;48.770;9.154;2023-03-20T16:00:51;16.40;;;1.40;;
2023;SDS011;1016;48.770;9.154;2023-03-20T16:03:16;18.37;;;1.63;;
2023;SDS011;1016;48.770;9.154;2023-03-20T16:05:45;17.00;;;1.60;;
2023;SDS011;1016;48.770;9.154;2023-03-20T16:08:14;17.33;;;1.60;;
2023;SDS011;1016;48.770;9.154;2023-03-20T16:11:00;16.50;;;1.50;;
2023;SDS011;1016;48.770;9.154;2023-03-20T16:13:33;17.50;;;1.50;;
2023;SDS011;1016;48.770;9.154;2023-03-20T16:16:07;17.20;;;1.40;;
2023;SDS011;1016;48.770;9.154;2023-03-20T16:18:37;20.33;;;1.77;;
2023;SDS011;1016;48.770;9.154;2023-03-20T16:21:04;16.60;;;1.40;;
2023;SDS011;1016;48.770;9.154;2023-03-20T16:23:40;17.10;;;1.57;;
2023;SDS011;1016;48.770;9.154;2023-03-20T16:26:15;17.33;;;1.70;;
2023;SDS011;1016;48.770;9.154;2023-03-20T16:28:46;17.50;;;1.80;;
2023;SDS011;1016;48.770;9.154;2023-03-20T16:31:16;16.73;;;1.43;;
2023;SDS011;1016;48.770;9.154;2023-03-20T16:33:44;16.83;;;1.60;;
2023;SDS011;1016;48.770;9.154;2023-03-20T16:36:16;17.90;;;1.97;;
2023;SDS011;1016;48.770;9.154;2023-03-20T16:38:53;17.47;;;1.70;;
2023;SDS011;1016;48.770;9.154;2023-03-20T16:43:56;18.43;;;2.00;;
2023;SDS011;1016;48.770;9.154;2023-03-20T16:46:23;17.90;;;1.70;;
2023;SDS011;1016;48.770;9.154;2023-03-20T16:48:51;18.47;;;1.90;;
2023;SDS011;1016;48.770;9.154;2023-03-20T16:51:25;17.17;;;1.60;;
2023;SDS011;1016;48.770;9.154;2023-03-20T16:53:57;17.63;;;2.10;;
2023;SDS011;1016;48.770;9.154;2023-03-20T16:56:28;17.87;;;1.83;;
2023;SDS011;1016;48.770;9.154;2023-03-20T16:58:58;17.23;;;1.60;;
2023;SDS011;1016;48.770;9.154;2023-03-20T17:01:31;17.27;;;1.70;;
2023;SDS011;1016;48.770;9.154;2023-03-20T17:03:57;18.00;;;1.90;;
2023;SDS011;1016;48.770;9.154;2023-03-20T17:06:53;17.60;;;2.10;;
2023;SDS011;1016;48.770;9.154;2023-03-20T17:09:26;17.10;;;1.80;;
2023;SDS011;1016;48.770;9.154;2023-03-20T17:11:58;16.93;;;1.50;;
2023;SDS011;1016;48.770;9.154;2023-03-20T17:14:28;17.40;;;1.70;;
2023;SDS011;1016;48.770;9.154;2023-03-20T17:16:54;17.37;;;1.80;;
2023;SDS011;1016;48.770;9.154;2023-03-20T17:19:21;17.10;;;1.53;;
2023;SDS011;1016;48.770;9.154;2023-03-20T17:21:47;17.83;;;1.43;;
2023;SDS011;1016;48.770;9.154;2023-03-20T17:24:13;17.47;;;1.60;;
2023;SDS011;1016;48.770;9.154;2023-03-20T17:26:41;16.97;;;1.60;;
2023;SDS011;1016;48.770;9.154;2023-03-20T17:29:10;17.07;;;1.50;;
2023;SDS011;1016;48.770;9.154;2023-03-20T17:31:36;17.27;;;1.53;;
2023;SDS011;1016;48.770;9.154;2023-03-20T17:34:01;17.40;;;1.90;;
2023;SDS011;1016;48.770;9.154;2023-03-20T17:36:28;17.33;;;1.60;;
2023;SDS011;1016;48.770;9.154;2023-03-20T17:38:56;17.17;;;1.60;;
2023;SDS011;1016;48.770;9.154;2023-03-20T17:41:23;17.10;;;1.63;;
2023;SDS011;1016;48.770;9.154;2023-03-20T17:43:49;18.73;;;1.83;;
2023;SDS011;1016;48.770;9.154;2023-03-20T17:46:19;35.47;;;17.33;;
2023;SDS011;1016;48.770;9.154;2023-03-20T17:48:47;18.77;;;2.23;;
2023;SDS011;1016;48.770;9.154;2023-03-20T17:51:13;17.87;;;1.67;;
2023;SDS011;1016;48.770;9.154;2023-03-20T17:53:38;17.87;;;2.03;;
2023;SDS011;1016;48.770;9.154;2023-03-20T17:56:08;17.60;;;1.80;;
2023;SDS011;1016;48.770;9.154;2023-03-20T17:58:36;17.97;;;2.53;;
2023;SDS011;1016;48.770;9.154;2023-03-20T18:01:01;19.60;;;2.63;;